sensor_id;sensor_type;location;lat;lon;timestamp;pressure;altitude;pressure_sealevel;temperature;humidity
63115;BME280;49208;50.874;6.466;2023-03-15T07:02:38;100485.97;;;1.71;100.00
63115;BME280;49208;50.874;6.466;2023-03-15T07:05:05;100501.69;;;1.74;100.00
63115;BME280;49208;50.874;6.466;2023-03-15T07:07:30;100506.09;;;1.75;100.00
63115;BME280;49208;50.874;6.466;2023-03-15T07:09:56;100510.47;;;1.74;100.00
63115;BME280;49208;50.874;6.466;2023-03-15T07:12:21;100515.69;;;1.71;100.00
63115;BME280;49208;50.874;6.466;2023-03-15T07:14:46;100516.59;;;1.70;100.00
63115;BME280;49208;50.874;6.466;2023-03-15T07:17:14;100518.34;;;1.68;100.00
63115;BME280;49208;50.874;6.466;2023-03-15T07:19:40;100520.94;;;1.67;100.00
63115;BME280;49208;50.874;6.466;2023-03-15T07:22:05;100527.91;;;1.63;100.00
63115;BME280;49208;50.874;6.466;2023-03-15T07:24:31;100529.69;;;1.64;100.00
63115;BME280;49208;50.874;6.466;2023-03-15T07:26:56;100533.19;;;1.66;100.00
63115;BME280;49208;50.874;6.466;2023-03-15T07:29:23;100533.19;;;1.74;100.00
63115;BME280;49208;50.874;6.466;2023-03-15T07:31:49;100537.56;;;1.84;100.00
63115;BME280;49208;50.874;6.466;2023-03-15T07:34:15;100538.47;;;1.98;100.00
63115;BME280;49208;50.874;6.466;2023-03-15T07:36:40;100536.75;;;2.16;100.00
63115;BME280;49208;50.874;6.466;2023-03-15T07:39:06;100544.63;;;2.43;100.00
63115;BME280;49208;50.874;6.466;2023-03-15T07:41:31;100549.81;;;2.79;100.00
63115;BME280;49208;50.874;6.466;2023-03-15T07:43:56;100551.47;;;3.11;100.00
63115;BME280;49208;50.874;6.466;2023-03-15T07:46:22;100562.81;;;3.28;100.00
63115;BME280;49208;50.874;6.466;2023-03-15T07:48:47;100565.41;;;3.37;100.00
63115;BME280;49208;50.874;6.466;2023-03-15T07:51:12;100557.50;;;3.37;100.00
63115;BME280;49208;50.874;6.466;2023-03-15T07:53:38;100575.06;;;3.35;100.00
63115;BME280;49208;50.874;6.466;2023-03-15T07:56:04;100577.72;;;3.29;100.00
63115;BME280;49208;50.874;6.466;2023-03-15T07:58:29;100583.00;;;3.23;100.00
63115;BME280;49208;50.874;6.466;2023-03-15T08:00:55;100577.72;;;3.23;100.00
63115;BME280;49208;50.874;6.466;2023-03-15T08:03:22;100585.63;;;3.26;100.00
63115;BME280;49208;50.874;6.466;2023-03-15T08:05:49;100595.09;;;3.61;100.00
63115;BME280;49208;50.874;6.466;2023-03-15T08:08:14;100597.97;;;4.61;100.00
63115;BME280;49208;50.874;6.466;2023-03-15T08:10:40;100600.63;;;5.43;100.00
63115;BME280;49208;50.874;6.466;2023-03-15T08:13:05;100602.81;;;5.79;97.44
63115;BME280;49208;50.874;6.466;2023-03-15T08:15:31;100599.97;;;5.94;95.13
63115;BME280;49208;50.874;6.466;2023-03-15T08:17:56;100607.94;;;5.91;93.87
63115;BME280;49208;50.874;6.466;2023-03-15T08:20:23;100612.66;;;5.67;94.15
63115;BME280;49208;50.874;6.466;2023-03-15T08:22:49;100616.59;;;5.31;94.17
63115;BME280;49208;50.874;6.466;2023-03-15T08:25:17;100622.28;;;4.93;95.51
63115;BME280;49208;50.874;6.466;2023-03-15T08:27:43;100623.31;;;4.79;96.55
63115;BME280;49208;50.874;6.466;2023-03-15T08:30:10;100624.34;;;4.60;96.51
63115;BME280;49208;50.874;6.466;2023-03-15T08:32:37;100625.38;;;4.37;97.65
63115;BME280;49208;50.874;6.466;2023-03-15T08:35:04;100631.50;;;4.41;99.63
63115;BME280;49208;50.874;6.466;2023-03-15T08:37:29;100642.63;;;4.78;100.00
63115;BME280;49208;50.874;6.466;2023-03-15T08:39:55;100645.81;;;5.16;98.50
63115;BME280;49208;50.874;6.466;2023-03-15T08:42:22;100642.94;;;5.37;96.42
63115;BME280;49208;50.874;6.466;2023-03-15T08:44:47;100655.25;;;5.40;92.79
63115;BME280;49208;50.874;6.466;2023-03-15T08:47:13;100659.91;;;5.10;92.76
63115;BME280;49208;50.874;6.466;2023-03-15T08:49:38;100661.06;;;4.81;92.90
63115;BME280;49208;50.874;6.466;2023-03-15T08:52:04;100670.75;;;5.69;97.69
63115;BME280;49208;50.874;6.466;2023-03-15T08:54:29;100659.72;;;7.64;87.61
63115;BME280;49208;50.874;6.466;2023-03-15T08:56:55;100660.63;;;9.50;77.75
63115;BME280;49208;50.874;6.466;2023-03-15T08:59:21;100659.16;;;10.87;72.94
63115;BME280;49208;50.874;6.466;2023-03-15T09:01:46;100661.44;;;11.50;65.59
63115;BME280;49208;50.874;6.466;2023-03-15T09:04:11;100664.63;;;11.60;61.44
63115;BME280;49208;50.874;6.466;2023-03-15T09:06:37;100669.47;;;11.48;63.26
63115;BME280;49208;50.874;6.466;2023-03-15T09:09:02;100680.81;;;11.03;62.30
63115;BME280;49208;50.874;6.466;2023-03-15T09:11:27;100671.47;;;10.63;64.61
63115;BME280;49208;50.874;6.466;2023-03-15T09:13:53;100683.38;;;10.22;66.24
63115;BME280;49208;50.874;6.466;2023-03-15T09:16:18;100679.25;;;9.82;66.42
63115;BME280;49208;50.874;6.466;2023-03-15T09:18:44;100681.16;;;9.11;67.33
63115;BME280;49208;50.874;6.466;2023-03-15T09:21:09;100678.25;;;8.48;68.08
63115;BME280;49208;50.874;6.466;2023-03-15T09:23:35;100675.59;;;8.08;74.39
63115;BME280;49208;50.874;6.466;2023-03-15T09:26:00;100679.00;;;8.13;75.95
63115;BME280;49208;50.874;6.466;2023-03-15T09:28:26;100682.50;;;8.15;73.41
63115;BME280;49208;50.874;6.466;2023-03-15T09:30:51;100676.06;;;7.86;72.53
63115;BME280;49208;50.874;6.466;2023-03-15T09:33:17;100692.06;;;7.35;74.09
63115;BME280;49208;50.874;6.466;2023-03-15T09:35:42;100694.44;;;7.49;75.09
63115;BME280;49208;50.874;6.466;2023-03-15T09:38:08;100689.44;;;7.80;79.64
63115;BME280;49208;50.874;6.466;2023-03-15T09:40:39;100687.75;;;8.18;80.06
63115;BME280;49208;50.874;6.466;2023-03-15T09:48:18;100702.25;;;9.17;77.50
63115;BME280;49208;50.874;6.466;2023-03-15T09:50:59;100714.00;;;9.41;73.87
63115;BME280;49208;50.874;6.466;2023-03-15T09:53:30;100699.84;;;9.74;74.42
63115;BME280;49208;50.874;6.466;2023-03-15T09:55:58;100706.38;;;9.93;72.28
63115;BME280;49208;50.874;6.466;2023-03-15T09:58:25;100702.72;;;10.27;72.18
63115;BME280;49208;50.874;6.466;2023-03-15T10:01:00;100690.66;;;10.46;70.06
63115;BME280;49208;50.874;6.466;2023-03-15T10:03:45;100697.16;;;10.64;65.05
63115;BME280;49208;50.874;6.466;2023-03-15T10:06:19;100697.75;;;10.15;63.46
63115;BME280;49208;50.874;6.466;2023-03-15T10:08:45;100693.38;;;9.84;65.81
63115;BME280;49208;50.874;6.466;2023-03-15T10:11:24;100698.88;;;9.45;65.28
63115;BME280;49208;50.874;6.466;2023-03-15T10:14:09;100700.94;;;8.99;68.61
63115;BME280;49208;50.874;6.466;2023-03-15T10:16:43;100694.00;;;8.92;68.91
63115;BME280;49208;50.874;6.466;2023-03-15T10:19:24;100685.84;;;9.01;70.74
63115;BME280;49208;50.874;6.466;2023-03-15T10:24:50;100709.03;;;9.27;71.33
63115;BME280;49208;50.874;6.466;2023-03-15T10:27:33;100704.34;;;9.71;69.87
63115;BME280;49208;50.874;6.466;2023-03-15T10:30:08;100701.03;;;9.95;68.87
63115;BME280;49208;50.874;6.466;2023-03-15T10:32:38;100698.72;;;10.12;67.21
63115;BME280;49208;50.874;6.466;2023-03-15T10:35:15;100704.22;;;10.06;66.83
63115;BME280;49208;50.874;6.466;2023-03-15T10:37:41;100704.66;;;9.92;67.00
63115;BME280;49208;50.874;6.466;2023-03-15T10:40:08;100706.25;;;9.66;66.36
63115;BME280;49208;50.874;6.466;2023-03-15T10:42:46;100710.56;;;9.03;65.92
63115;BME280;49208;50.874;6.466;2023-03-15T10:45:20;100705.59;;;8.52;69.63
63115;BME280;49208;50.874;6.466;2023-03-15T10:47:47;100706.63;;;8.03;68.93
63115;BME280;49208;50.874;6.466;2023-03-15T10:50:24;100699.47;;;7.64;71.81
63115;BME280;49208;50.874;6.466;2023-03-15T10:52:54;100709.69;;;7.36;71.96
63115;BME280;49208;50.874;6.466;2023-03-15T10:55:30;100707.47;;;7.12;72.74
63115;BME280;49208;50.874;6.466;2023-03-15T10:57:59;100708.47;;;7.06;73.95
63115;BME280;49208;50.874;6.466;2023-03-15T11:00:36;100702.03;;;7.21;72.71
63115;BME280;49208;50.874;6.466;2023-03-15T11:03:14;100715.19;;;7.25;67.64
63115;BME280;49208;50.874;6.466;2023-03-15T11:05:45;100714.47;;;7.16;66.84
63115;BME280;49208;50.874;6.466;2023-03-15T11:08:17;100719.34;;;6.89;67.26
63115;BME280;49208;50.874;6.466;2023-03-15T11:10:46;100719.47;;;6.80;67.34
63115;BME280;49208;50.874;6.466;2023-03-15T11:13:20;100731.25;;;6.60;71.74
63115;BME280;49208;50.874;6.466;2023-03-15T11:15:59;100729.72;;;6.41;75.28
63115;BME280;49208;50.874;6.466;2023-03-15T11:21:24;100737.72;;;6.38;73.25
63115;BME280;49208;50.874;6.466;2023-03-15T11:23:50;100737.13;;;6.79;73.33
63115;BME280;49208;50.874;6.466;2023-03-15T11:26:25;100741.28;;;6.96;69.72
63115;BME280;49208;50.874;6.466;2023-03-15T11:29:00;100745.84;;;6.86;70.95
63115;BME280;49208;50.874;6.466;2023-03-15T11:31:29;100745.91;;;6.80;69.73
63115;BME280;49208;50.874;6.466;2023-03-15T11:34:11;100745.81;;;6.87;69.13
63115;BME280;49208;50.874;6.466;2023-03-15T11:36:42;100748.50;;;6.84;68.63
63115;BME280;49208;50.874;6.466;2023-03-15T11:39:13;100752.06;;;6.82;69.29
63115;BME280;49208;50.874;6.466;2023-03-15T11:41:55;100757.31;;;6.85;71.65
63115;BME280;49208;50.874;6.466;2023-03-15T11:44:38;100757.16;;;6.94;69.92
63115;BME280;49208;50.874;6.466;2023-03-15T11:47:27;100759.81;;;6.96;68.20
63115;BME280;49208;50.874;6.466;2023-03-15T11:49:56;100767.69;;;6.99;69.93
63115;BME280;49208;50.874;6.466;2023-03-15T11:52:25;100776.69;;;6.87;68.38
63115;BME280;49208;50.874;6.466;2023-03-15T11:54:55;100773.34;;;6.74;70.23
63115;BME280;49208;50.874;6.466;2023-03-15T11:59:53;100764.44;;;7.34;68.41
63115;BME280;49208;50.874;6.466;2023-03-15T12:04:46;100768.00;;;8.28;72.27
63115;BME280;49208;50.874;6.466;2023-03-15T12:09:48;100771.81;;;8.96;67.62
63115;BME280;49208;50.874;6.466;2023-03-15T12:15:42;100764.06;;;9.24;61.38
63115;BME280;49208;50.874;6.466;2023-03-15T12:17:52;100765.34;;;9.07;59.92
63115;BME280;49208;50.874;6.466;2023-03-15T12:20:26;100772.94;;;8.85;62.35
63115;BME280;49208;50.874;6.466;2023-03-15T12:25:56;100760.53;;;8.47;63.15
63115;BME280;49208;50.874;6.466;2023-03-15T12:31:04;100763.34;;;8.38;62.67
63115;BME280;49208;50.874;6.466;2023-03-15T12:33:33;100754.25;;;8.51;57.99
63115;BME280;49208;50.874;6.466;2023-03-15T12:36:13;100755.03;;;8.56;60.06
63115;BME280;49208;50.874;6.466;2023-03-15T12:38:56;100751.69;;;8.46;60.53
63115;BME280;49208;50.874;6.466;2023-03-15T12:41:42;100757.66;;;8.14;56.90
63115;BME280;49208;50.874;6.466;2023-03-15T12:44:40;100760.06;;;7.83;57.10
63115;BME280;49208;50.874;6.466;2023-03-15T12:47:07;100757.00;;;7.58;58.98
63115;BME280;49208;50.874;6.466;2023-03-15T12:49:43;100745.13;;;7.31;58.18
63115;BME280;49208;50.874;6.466;2023-03-15T12:52:24;100751.50;;;7.19;62.37
63115;BME280;49208;50.874;6.466;2023-03-15T12:55:02;100747.13;;;7.16;60.13
63115;BME280;49208;50.874;6.466;2023-03-15T12:57:36;100737.41;;;7.15;59.39
63115;BME280;49208;50.874;6.466;2023-03-15T13:00:07;100750.63;;;7.18;59.77
63115;BME280;49208;50.874;6.466;2023-03-15T13:02:44;100744.38;;;7.21;61.82
63115;BME280;49208;50.874;6.466;2023-03-15T13:05:24;100737.31;;;7.21;62.15
63115;BME280;49208;50.874;6.466;2023-03-15T13:07:57;100745.38;;;7.14;62.20
63115;BME280;49208;50.874;6.466;2023-03-15T13:19:13;100745.38;;;7.14;61.68
63115;BME280;49208;50.874;6.466;2023-03-15T13:24:26;100738.56;;;6.99;63.34
63115;BME280;49208;50.874;6.466;2023-03-15T13:27:07;100754.50;;;6.97;63.59
63115;BME280;49208;50.874;6.466;2023-03-15T13:29:36;100747.25;;;7.07;61.98
63115;BME280;49208;50.874;6.466;2023-03-15T13:32:12;100743.47;;;7.23;61.59
63115;BME280;49208;50.874;6.466;2023-03-15T13:34:38;100746.63;;;7.45;61.01
63115;BME280;49208;50.874;6.466;2023-03-15T13:37:11;100742.59;;;7.73;57.76
63115;BME280;49208;50.874;6.466;2023-03-15T13:39:38;100737.94;;;7.84;57.76
63115;BME280;49208;50.874;6.466;2023-03-15T13:42:18;100736.75;;;7.99;60.17
63115;BME280;49208;50.874;6.466;2023-03-15T13:44:44;100741.81;;;8.11;61.54
63115;BME280;49208;50.874;6.466;2023-03-15T13:47:20;100747.69;;;8.25;58.90
63115;BME280;49208;50.874;6.466;2023-03-15T13:49:47;100749.25;;;8.34;59.53
63115;BME280;49208;50.874;6.466;2023-03-15T13:52:16;100742.84;;;8.47;59.32
63115;BME280;49208;50.874;6.466;2023-03-15T13:54:42;100744.41;;;8.56;58.54
63115;BME280;49208;50.874;6.466;2023-03-15T13:57:18;100746.75;;;8.70;57.53
63115;BME280;49208;50.874;6.466;2023-03-15T13:59:56;100740.22;;;8.85;57.97
63115;BME280;49208;50.874;6.466;2023-03-15T14:05:11;100738.25;;;8.93;53.60
63115;BME280;49208;50.874;6.466;2023-03-15T14:07:39;100744.41;;;8.94;54.99
63115;BME280;49208;50.874;6.466;2023-03-15T14:12:44;100749.97;;;8.84;54.46
63115;BME280;49208;50.874;6.466;2023-03-15T14:18:02;100743.81;;;8.82;53.21
63115;BME280;49208;50.874;6.466;2023-03-15T14:20:39;100749.06;;;8.84;50.29
63115;BME280;49208;50.874;6.466;2023-03-15T14:23:07;100743.91;;;8.78;52.32
63115;BME280;49208;50.874;6.466;2023-03-15T14:25:34;100745.81;;;8.73;49.01
63115;BME280;49208;50.874;6.466;2023-03-15T14:28:02;100744.25;;;8.64;48.25
63115;BME280;49208;50.874;6.466;2023-03-15T14:30:28;100743.53;;;8.56;50.54
63115;BME280;49208;50.874;6.466;2023-03-15T14:33:00;100747.16;;;8.53;53.76
63115;BME280;49208;50.874;6.466;2023-03-15T14:35:41;100749.75;;;8.55;47.44
63115;BME280;49208;50.874;6.466;2023-03-15T14:38:23;100749.94;;;8.47;46.44
63115;BME280;49208;50.874;6.466;2023-03-15T14:40:51;100763.34;;;8.38;49.74
63115;BME280;49208;50.874;6.466;2023-03-15T14:43:18;100766.09;;;8.33;50.21
63115;BME280;49208;50.874;6.466;2023-03-15T14:45:47;100763.53;;;8.30;50.21
63115;BME280;49208;50.874;6.466;2023-03-15T14:50:44;100762.41;;;8.40;49.59
63115;BME280;49208;50.874;6.466;2023-03-15T14:53:18;100768.56;;;8.42;49.95
63115;BME280;49208;50.874;6.466;2023-03-15T14:55:45;100762.47;;;8.37;50.55
63115;BME280;49208;50.874;6.466;2023-03-15T14:58:13;100770.53;;;8.33;49.36
63115;BME280;49208;50.874;6.466;2023-03-15T15:00:40;100773.25;;;8.29;50.89
63115;BME280;49208;50.874;6.466;2023-03-15T15:03:33;100770.59;;;8.29;52.23
63115;BME280;49208;50.874;6.466;2023-03-15T15:06:02;100769.75;;;8.27;47.56
63115;BME280;49208;50.874;6.466;2023-03-15T15:08:30;100775.19;;;8.21;49.47
63115;BME280;49208;50.874;6.466;2023-03-15T15:10:56;100771.69;;;8.19;50.77
63115;BME280;49208;50.874;6.466;2023-03-15T15:13:26;100767.22;;;8.21;48.59
63115;BME280;49208;50.874;6.466;2023-03-15T15:15:53;100769.94;;;8.20;47.64
63115;BME280;49208;50.874;6.466;2023-03-15T15:18:19;100765.53;;;8.17;47.97
63115;BME280;49208;50.874;6.466;2023-03-15T15:20:45;100771.66;;;8.21;48.62
63115;BME280;49208;50.874;6.466;2023-03-15T15:23:19;100768.97;;;8.24;50.00
63115;BME280;49208;50.874;6.466;2023-03-15T15:25:45;100769.94;;;8.20;52.98
63115;BME280;49208;50.874;6.466;2023-03-15T15:28:13;100771.75;;;8.18;53.23
63115;BME280;49208;50.874;6.466;2023-03-15T15:30:38;100756.72;;;8.17;54.09
63115;BME280;49208;50.874;6.466;2023-03-15T15:33:04;100759.53;;;8.09;53.58
63115;BME280;49208;50.874;6.466;2023-03-15T15:35:30;100762.16;;;8.09;52.47
63115;BME280;49208;50.874;6.466;2023-03-15T15:37:55;100750.97;;;7.95;51.60
63115;BME280;49208;50.874;6.466;2023-03-15T15:40:31;100752.16;;;7.80;53.90
63115;BME280;49208;50.874;6.466;2023-03-15T15:42:57;100754.06;;;7.72;53.96
63115;BME280;49208;50.874;6.466;2023-03-15T15:45:23;100753.41;;;7.60;57.70
63115;BME280;49208;50.874;6.466;2023-03-15T15:47:51;100750.88;;;7.53;55.38
63115;BME280;49208;50.874;6.466;2023-03-15T15:50:18;100745.69;;;7.46;53.50
63115;BME280;49208;50.874;6.466;2023-03-15T15:52:48;100744.06;;;7.41;55.42
63115;BME280;49208;50.874;6.466;2023-03-15T15:55:16;100745.00;;;7.37;55.90
63115;BME280;49208;50.874;6.466;2023-03-15T15:57:45;100745.91;;;7.34;54.96
63115;BME280;49208;50.874;6.466;2023-03-15T16:00:17;100755.63;;;7.35;54.91
63115;BME280;49208;50.874;6.466;2023-03-15T16:02:44;100749.59;;;7.27;51.92
63115;BME280;49208;50.874;6.466;2023-03-15T16:05:09;100748.84;;;7.17;52.71
63115;BME280;49208;50.874;6.466;2023-03-15T16:07:36;100748.06;;;7.12;56.61
63115;BME280;49208;50.874;6.466;2023-03-15T16:10:02;100745.44;;;7.11;61.04
63115;BME280;49208;50.874;6.466;2023-03-15T16:12:28;100746.38;;;7.08;58.43
63115;BME280;49208;50.874;6.466;2023-03-15T16:14:54;100738.44;;;7.06;58.68
63115;BME280;49208;50.874;6.466;2023-03-15T16:17:21;100741.19;;;7.02;59.92
63115;BME280;49208;50.874;6.466;2023-03-15T16:19:48;100750.09;;;6.96;58.21
63115;BME280;49208;50.874;6.466;2023-03-15T16:22:14;100743.09;;;6.91;58.18
63115;BME280;49208;50.874;6.466;2023-03-15T16:24:40;100739.69;;;6.85;57.42
63115;BME280;49208;50.874;6.466;2023-03-15T16:27:13;100738.84;;;6.80;59.17
63115;BME280;49208;50.874;6.466;2023-03-15T16:29:48;100738.94;;;6.74;60.13
63115;BME280;49208;50.874;6.466;2023-03-15T16:32:19;100747.03;;;6.66;59.95
63115;BME280;49208;50.874;6.466;2023-03-15T16:34:50;100744.47;;;6.59;60.92
63115;BME280;49208;50.874;6.466;2023-03-15T16:37:20;100744.56;;;6.53;60.05
63115;BME280;49208;50.874;6.466;2023-03-15T16:39:48;100749.09;;;6.44;59.79
63115;BME280;49208;50.874;6.466;2023-03-15T16:42:16;100756.25;;;6.36;58.93
63115;BME280;49208;50.874;6.466;2023-03-15T16:44:43;100752.81;;;6.28;59.53
63115;BME280;49208;50.874;6.466;2023-03-15T16:47:08;100754.69;;;6.20;63.12
63115;BME280;49208;50.874;6.466;2023-03-15T16:49:34;100757.41;;;6.14;62.40
63115;BME280;49208;50.874;6.466;2023-03-15T16:51:59;100767.19;;;6.07;63.74
63115;BME280;49208;50.874;6.466;2023-03-15T16:54:26;100769.88;;;6.02;59.30
63115;BME280;49208;50.874;6.466;2023-03-15T16:56:53;100773.47;;;5.95;58.69
63115;BME280;49208;50.874;6.466;2023-03-15T16:59:18;100771.72;;;5.91;59.11
63115;BME280;49208;50.874;6.466;2023-03-15T17:01:44;100776.22;;;5.84;60.82
63115;BME280;49208;50.874;6.466;2023-03-15T17:04:10;100772.75;;;5.78;59.65
63115;BME280;49208;50.874;6.466;2023-03-15T17:06:36;100786.03;;;5.73;62.05
63115;BME280;49208;50.874;6.466;2023-03-15T17:09:11;100784.38;;;5.64;61.04
63115;BME280;49208;50.874;6.466;2023-03-15T17:11:39;100780.00;;;5.57;62.72
63115;BME280;49208;50.874;6.466;2023-03-15T17:14:06;100783.63;;;5.49;62.70
63115;BME280;49208;50.874;6.466;2023-03-15T17:16:34;100771.38;;;5.40;64.48
63115;BME280;49208;50.874;6.466;2023-03-15T17:19:01;100772.34;;;5.30;65.70
63115;BME280;49208;50.874;6.466;2023-03-15T17:21:26;100775.06;;;5.20;66.05
63115;BME280;49208;50.874;6.466;2023-03-15T17:23:53;100781.28;;;5.13;66.45
63115;BME280;49208;50.874;6.466;2023-03-15T17:26:21;100775.19;;;5.03;66.48
63115;BME280;49208;50.874;6.466;2023-03-15T17:28:48;100778.78;;;4.95;66.41
63115;BME280;49208;50.874;6.466;2023-03-15T17:31:17;100779.69;;;4.89;67.09
63115;BME280;49208;50.874;6.466;2023-03-15T17:33:43;100780.59;;;4.83;66.89
63115;BME280;49208;50.874;6.466;2023-03-15T17:36:12;100786.81;;;4.79;67.39
63115;BME280;49208;50.874;6.466;2023-03-15T17:38:39;100783.31;;;4.74;67.54
63115;BME280;49208;50.874;6.466;2023-03-15T17:41:19;100788.63;;;4.70;67.91
63115;BME280;49208;50.874;6.466;2023-03-15T17:43:46;100789.53;;;4.64;69.23
63115;BME280;49208;50.874;6.466;2023-03-15T17:46:12;100787.78;;;4.60;68.66
63115;BME280;49208;50.874;6.466;2023-03-15T17:48:38;100787.81;;;4.55;69.53
63115;BME280;49208;50.874;6.466;2023-03-15T17:51:04;100795.72;;;4.54;70.04
63115;BME280;49208;50.874;6.466;2023-03-15T17:53:30;100798.41;;;4.51;69.82
63115;BME280;49208;50.874;6.466;2023-03-15T17:55:55;100801.06;;;4.44;71.92
63115;BME280;49208;50.874;6.466;2023-03-15T17:58:22;100794.91;;;4.39;71.52
63115;BME280;49208;50.874;6.466;2023-03-15T18:00:49;100795.78;;;4.40;70.81
63115;BME280;49208;50.874;6.466;2023-03-15T18:03:15;100794.91;;;4.38;71.68
63115;BME280;49208;50.874;6.466;2023-03-15T18:05:41;100793.19;;;4.35;71.46
63115;BME280;49208;50.874;6.466;2023-03-15T18:08:12;100797.59;;;4.35;71.78
63115;BME280;49208;50.874;6.466;2023-03-15T18:10:39;100800.25;;;4.32;71.90
63115;BME280;49208;50.874;6.466;2023-03-15T18:13:16;100798.47;;;4.32;71.54
63115;BME280;49208;50.874;6.466;2023-03-15T18:15:43;100799.38;;;4.30;71.66
63115;BME280;49208;50.874;6.466;2023-03-15T18:18:09;100801.13;;;4.26;73.06
63115;BME280;49208;50.874;6.466;2023-03-15T18:20:35;100804.63;;;4.25;72.64
63115;BME280;49208;50.874;6.466;2023-03-15T18:23:01;100815.19;;;4.20;73.35
63115;BME280;49208;50.874;6.466;2023-03-15T18:25:29;100810.81;;;4.15;74.16
63115;BME280;49208;50.874;6.466;2023-03-15T18:27:55;100807.31;;;4.13;73.79
63115;BME280;49208;50.874;6.466;2023-03-15T18:30:24;100819.66;;;4.08;74.17
63115;BME280;49208;50.874;6.466;2023-03-15T18:32:50;100817.91;;;4.05;73.95
63115;BME280;49208;50.874;6.466;2023-03-15T18:35:26;100817.00;;;4.08;74.79
63115;BME280;49208;50.874;6.466;2023-03-15T18:37:52;100824.03;;;4.05;74.92
63115;BME280;49208;50.874;6.466;2023-03-15T18:40:20;100828.41;;;4.07;74.71
63115;BME280;49208;50.874;6.466;2023-03-15T18:42:46;100822.28;;;4.01;75.49
63115;BME280;49208;50.874;6.466;2023-03-15T18:45:22;100834.56;;;3.96;75.13
63115;BME280;49208;50.874;6.466;2023-03-15T18:47:48;100831.09;;;3.93;76.49
63115;BME280;49208;50.874;6.466;2023-03-15T18:50:15;100829.34;;;3.90;76.75
63115;BME280;49208;50.874;6.466;2023-03-15T18:52:41;100834.63;;;3.84;76.98
63115;BME280;49208;50.874;6.466;2023-03-15T18:55:07;100834.63;;;3.84;77.80
63115;BME280;49208;50.874;6.466;2023-03-15T18:57:34;100827.63;;;3.80;78.09
63115;BME280;49208;50.874;6.466;2023-03-15T19:00:00;100822.34;;;3.74;78.16
63115;BME280;49208;50.874;6.466;2023-03-15T19:02:25;100825.88;;;3.70;77.68
63115;BME280;49208;50.874;6.466;2023-03-15T19:04:50;100827.63;;;3.66;77.74
63115;BME280;49208;50.874;6.466;2023-03-15T19:07:16;100828.50;;;3.63;77.50
63115;BME280;49208;50.874;6.466;2023-03-15T19:09:41;100832.03;;;3.59;77.71
63115;BME280;49208;50.874;6.466;2023-03-15T19:12:09;100825.00;;;3.60;77.82
63115;BME280;49208;50.874;6.466;2023-03-15T19:14:35;100830.28;;;3.61;78.00
63115;BME280;49208;50.874;6.466;2023-03-15T19:17:01;100825.88;;;3.57;78.73
63115;BME280;49208;50.874;6.466;2023-03-15T19:19:27;100835.53;;;3.52;79.16
63115;BME280;49208;50.874;6.466;2023-03-15T19:21:53;100825.91;;;3.47;79.63
63115;BME280;49208;50.874;6.466;2023-03-15T19:24:20;100824.13;;;3.44;79.11
63115;BME280;49208;50.874;6.466;2023-03-15T19:26:46;100827.63;;;3.40;79.58
63115;BME280;49208;50.874;6.466;2023-03-15T19:29:11;100821.50;;;3.35;80.71
63115;BME280;49208;50.874;6.466;2023-03-15T19:31:36;100824.16;;;3.30;81.03
63115;BME280;49208;50.874;6.466;2023-03-15T19:34:03;100824.13;;;3.27;81.91
63115;BME280;49208;50.874;6.466;2023-03-15T19:36:28;100822.38;;;3.26;80.92
63115;BME280;49208;50.874;6.466;2023-03-15T19:38:53;100825.00;;;3.23;80.96
63115;BME280;49208;50.874;6.466;2023-03-15T19:41:19;100827.66;;;3.20;81.12
63115;BME280;49208;50.874;6.466;2023-03-15T19:43:44;100833.75;;;3.17;81.08
63115;BME280;49208;50.874;6.466;2023-03-15T19:46:10;100832.88;;;3.15;80.86
63115;BME280;49208;50.874;6.466;2023-03-15T19:48:38;100824.13;;;3.15;80.95
63115;BME280;49208;50.874;6.466;2023-03-15T19:51:04;100830.25;;;3.11;81.90
63115;BME280;49208;50.874;6.466;2023-03-15T19:53:29;100830.25;;;3.09;81.76
63115;BME280;49208;50.874;6.466;2023-03-15T19:55:54;100828.50;;;3.08;79.91
63115;BME280;49208;50.874;6.466;2023-03-15T19:58:20;100835.53;;;3.08;79.42
63115;BME280;49208;50.874;6.466;2023-03-15T20:00:47;100831.13;;;3.07;79.49
63115;BME280;49208;50.874;6.466;2023-03-15T20:03:13;100823.25;;;3.05;79.67
63115;BME280;49208;50.874;6.466;2023-03-15T20:05:38;100824.09;;;3.07;79.37
63115;BME280;49208;50.874;6.466;2023-03-15T20:08:04;100824.97;;;3.04;79.37
63115;BME280;49208;50.874;6.466;2023-03-15T20:10:29;100827.63;;;3.01;80.78
63115;BME280;49208;50.874;6.466;2023-03-15T20:12:55;100820.59;;;2.97;80.90
63115;BME280;49208;50.874;6.466;2023-03-15T20:15:24;100831.09;;;2.94;81.19
63115;BME280;49208;50.874;6.466;2023-03-15T20:17:50;100827.59;;;2.92;80.73
63115;BME280;49208;50.874;6.466;2023-03-15T20:20:16;100831.09;;;2.91;80.68
63115;BME280;49208;50.874;6.466;2023-03-15T20:22:42;100832.84;;;2.89;80.71
63115;BME280;49208;50.874;6.466;2023-03-15T20:25:13;100825.84;;;2.90;80.80
63115;BME280;49208;50.874;6.466;2023-03-15T20:27:39;100829.34;;;2.86;81.06
63115;BME280;49208;50.874;6.466;2023-03-15T20:30:06;100841.63;;;2.85;80.52
63115;BME280;49208;50.874;6.466;2023-03-15T20:32:32;100833.69;;;2.82;80.25
63115;BME280;49208;50.874;6.466;2023-03-15T20:34:57;100838.06;;;2.80;80.86
63115;BME280;49208;50.874;6.466;2023-03-15T20:37:28;100845.06;;;2.78;80.62
63115;BME280;49208;50.874;6.466;2023-03-15T20:39:54;100843.34;;;2.77;80.39
63115;BME280;49208;50.874;6.466;2023-03-15T20:42:21;100833.72;;;2.74;80.72
63115;BME280;49208;50.874;6.466;2023-03-15T20:44:47;100840.69;;;2.71;80.37
63115;BME280;49208;50.874;6.466;2023-03-15T20:47:12;100833.66;;;2.67;80.69
63115;BME280;49208;50.874;6.466;2023-03-15T20:49:38;100844.16;;;2.65;80.32
63115;BME280;49208;50.874;6.466;2023-03-15T20:52:03;100850.31;;;2.62;81.09
63115;BME280;49208;50.874;6.466;2023-03-15T20:54:29;100845.03;;;2.61;81.71
63115;BME280;49208;50.874;6.466;2023-03-15T20:56:55;100855.56;;;2.59;81.46
63115;BME280;49208;50.874;6.466;2023-03-15T20:59:20;100846.78;;;2.59;81.12